createdAt,value
2023-02-03T00:05:43.626Z,22.403
2023-02-03T00:20:45.450Z,22.036
2023-02-03T00:35:47.340Z,22.597
2023-02-03T00:50:49.275Z,22.13
2023-02-03T01:05:51.150Z,23.114
2023-02-03T01:20:53.016Z,22.065
2023-02-03T01:35:54.949Z,23.033
2023-02-03T01:50:56.885Z,22.125
2023-02-03T02:05:58.802Z,23.055
2023-02-03T02:21:17.401Z,21.947
2023-02-03T02:36:19.412Z,22.865
2023-02-03T02:51:21.356Z,22.036
2023-02-03T03:07:44.712Z,22.533
2023-02-03T03:22:46.703Z,22.267
2023-02-03T03:37:48.607Z,22.183
2023-02-03T03:52:50.499Z,22.042
2023-02-03T04:07:52.466Z,22.449
2023-02-03T04:22:54.429Z,22.049
2023-02-03T04:37:56.755Z,22.187
2023-02-03T04:52:58.662Z,22.069
2023-02-03T05:08:00.583Z,22.364
2023-02-03T05:23:02.534Z,22.033
2023-02-03T05:38:04.450Z,22.213
2023-02-03T05:53:06.529Z,23.136
2023-02-03T06:08:08.489Z,24.652
2023-02-03T06:23:10.438Z,23.982
2023-02-03T06:38:12.368Z,23.398
2023-02-03T06:53:14.322Z,22.48
2023-02-03T07:08:16.239Z,25.037
2023-02-03T07:23:18.157Z,24.132
2023-02-03T07:38:20.079Z,22.241
2023-02-03T07:53:21.914Z,21.898
2023-02-03T08:08:23.780Z,21.962
2023-02-03T08:23:25.635Z,22.08
2023-02-03T08:38:27.542Z,22.161
2023-02-03T08:53:29.521Z,22.177
2023-02-03T09:08:31.468Z,21.842
2023-02-03T09:23:33.388Z,21.407
2023-02-03T09:38:35.350Z,21.382
2023-02-03T09:53:37.290Z,21.46
2023-02-03T10:08:39.267Z,21.548
2023-02-03T10:23:41.234Z,21.707
2023-02-03T10:38:43.152Z,21.785
2023-02-03T10:53:45.099Z,21.79
2023-02-03T11:08:47.096Z,21.993
2023-02-03T11:23:49.192Z,22.137
2023-02-03T11:38:51.112Z,22.216
2023-02-03T11:53:57.271Z,22.199
2023-02-03T12:08:59.919Z,22.283
2023-02-03T12:24:01.876Z,22.65
2023-02-03T12:39:03.932Z,22.881
2023-02-03T12:54:05.855Z,23.203
2023-02-03T13:09:07.760Z,23.428
2023-02-03T13:24:09.654Z,23.237
2023-02-03T13:39:11.578Z,23.806
2023-02-03T13:54:13.545Z,24.729
2023-02-03T14:09:15.474Z,25.321
2023-02-03T14:24:17.368Z,26.474
2023-02-03T14:39:19.287Z,26.115
2023-02-03T14:54:21.309Z,26.406
2023-02-03T15:09:23.593Z,26.176
2023-02-03T15:24:25.549Z,26.206
2023-02-03T15:39:27.477Z,25.99
2023-02-03T15:54:29.383Z,25.646
2023-02-03T16:09:31.324Z,25.963
2023-02-03T16:24:33.358Z,25.276
2023-02-03T16:39:35.263Z,25.401
2023-02-03T16:54:37.186Z,23.733
2023-02-03T17:09:39.155Z,22.314
2023-02-03T17:24:41.198Z,22.747
2023-02-03T17:56:54.700Z,21.798
2023-02-03T18:11:56.497Z,21.474
2023-02-03T18:26:58.435Z,21.811
2023-02-03T18:42:00.375Z,21.882
2023-02-03T18:57:02.571Z,20.767
2023-02-03T19:12:04.510Z,21.134
2023-02-03T19:27:06.451Z,21.159
2023-02-03T19:42:08.381Z,19.814
2023-02-03T19:57:10.329Z,20.498
2023-02-03T20:12:12.246Z,20.642
2023-02-03T20:27:14.197Z,20.416
2023-02-03T20:42:16.106Z,19.515
2023-02-03T20:57:18.000Z,19.508
2023-02-03T21:12:20.033Z,19.905
2023-02-03T21:27:21.974Z,19.901
2023-02-03T21:42:23.906Z,19.385
2023-02-03T21:57:25.908Z,18.562
2023-02-03T22:12:27.831Z,18.685
2023-02-03T22:27:29.786Z,19.34
2023-02-03T22:42:31.727Z,19.638
2023-02-03T22:57:33.628Z,19.69
2023-02-03T23:12:35.541Z,19.057
2023-02-03T23:27:37.417Z,19.027
2023-02-03T23:42:39.606Z,18.937
2023-02-03T23:57:41.599Z,18.988
